sensor_id;sensor_type;location;lat;lon;timestamp;P1;durP1;ratioP1;P2;durP2;ratioP2
32297;SDS011;18782;48.984;8.548;2022-11-20T00:01:17;12.10;;;8.38;;
32297;SDS011;18782;48.984;8.548;2022-11-20T00:03:46;12.55;;;8.90;;
32297;SDS011;18782;48.984;8.548;2022-11-20T00:06:15;11.15;;;8.00;;
32297;SDS011;18782;48.984;8.548;2022-11-20T00:08:44;13.15;;;8.18;;
32297;SDS011;18782;48.984;8.548;2022-11-20T00:11:13;11.82;;;8.07;;
32297;SDS011;18782;48.984;8.548;2022-11-20T00:13:42;11.73;;;8.40;;
32297;SDS011;18782;48.984;8.548;2022-11-20T00:16:11;10.43;;;7.75;;
32297;SDS011;18782;48.984;8.548;2022-11-20T00:18:40;14.00;;;9.20;;
32297;SDS011;18782;48.984;8.548;2022-11-20T00:21:10;14.52;;;9.35;;
32297;SDS011;18782;48.984;8.548;2022-11-20T00:23:40;12.55;;;8.60;;
32297;SDS011;18782;48.984;8.548;2022-11-20T00:26:09;12.13;;;8.32;;
32297;SDS011;18782;48.984;8.548;2022-11-20T00:28:38;12.85;;;8.70;;
32297;SDS011;18782;48.984;8.548;2022-11-20T00:31:07;13.60;;;8.68;;
32297;SDS011;18782;48.984;8.548;2022-11-20T00:33:36;12.30;;;8.63;;
32297;SDS011;18782;48.984;8.548;2022-11-20T00:36:06;12.05;;;8.27;;
32297;SDS011;18782;48.984;8.548;2022-11-20T00:38:36;13.85;;;8.70;;
32297;SDS011;18782;48.984;8.548;2022-11-20T00:41:05;12.48;;;8.90;;
32297;SDS011;18782;48.984;8.548;2022-11-20T00:43:35;11.40;;;8.60;;
32297;SDS011;18782;48.984;8.548;2022-11-20T00:46:04;12.65;;;8.40;;
32297;SDS011;18782;48.984;8.548;2022-11-20T00:48:33;11.20;;;8.35;;
32297;SDS011;18782;48.984;8.548;2022-11-20T00:51:01;13.23;;;8.88;;
32297;SDS011;18782;48.984;8.548;2022-11-20T00:53:30;10.63;;;7.90;;
32297;SDS011;18782;48.984;8.548;2022-11-20T00:55:58;11.57;;;8.73;;
32297;SDS011;18782;48.984;8.548;2022-11-20T00:58:28;11.00;;;8.40;;
32297;SDS011;18782;48.984;8.548;2022-11-20T01:01:00;11.98;;;8.55;;
32297;SDS011;18782;48.984;8.548;2022-11-20T01:03:30;11.40;;;7.90;;
32297;SDS011;18782;48.984;8.548;2022-11-20T01:05:59;10.80;;;7.25;;
32297;SDS011;18782;48.984;8.548;2022-11-20T01:08:33;10.93;;;7.50;;
32297;SDS011;18782;48.984;8.548;2022-11-20T01:11:03;13.32;;;8.25;;
32297;SDS011;18782;48.984;8.548;2022-11-20T01:13:32;12.75;;;8.00;;
32297;SDS011;18782;48.984;8.548;2022-11-20T01:16:04;10.25;;;7.32;;
32297;SDS011;18782;48.984;8.548;2022-11-20T01:18:34;11.38;;;7.43;;
32297;SDS011;18782;48.984;8.548;2022-11-20T01:21:03;10.43;;;7.22;;
32297;SDS011;18782;48.984;8.548;2022-11-20T01:23:34;10.73;;;7.00;;
32297;SDS011;18782;48.984;8.548;2022-11-20T01:26:03;12.80;;;8.05;;
32297;SDS011;18782;48.984;8.548;2022-11-20T01:28:33;9.70;;;7.25;;
32297;SDS011;18782;48.984;8.548;2022-11-20T01:31:01;10.43;;;7.07;;
32297;SDS011;18782;48.984;8.548;2022-11-20T01:33:38;11.90;;;7.20;;
32297;SDS011;18782;48.984;8.548;2022-11-20T01:36:06;7.60;;;5.93;;
32297;SDS011;18782;48.984;8.548;2022-11-20T01:38:36;9.63;;;7.13;;
32297;SDS011;18782;48.984;8.548;2022-11-20T01:41:04;9.95;;;7.38;;
32297;SDS011;18782;48.984;8.548;2022-11-20T01:43:33;9.20;;;6.65;;
32297;SDS011;18782;48.984;8.548;2022-11-20T01:46:01;10.25;;;6.63;;
32297;SDS011;18782;48.984;8.548;2022-11-20T01:48:34;7.60;;;5.18;;
32297;SDS011;18782;48.984;8.548;2022-11-20T01:51:06;7.63;;;5.63;;
32297;SDS011;18782;48.984;8.548;2022-11-20T01:53:45;10.32;;;6.25;;
32297;SDS011;18782;48.984;8.548;2022-11-20T01:56:14;7.07;;;5.13;;
32297;SDS011;18782;48.984;8.548;2022-11-20T01:58:43;7.82;;;5.38;;
32297;SDS011;18782;48.984;8.548;2022-11-20T02:01:15;7.20;;;5.00;;
32297;SDS011;18782;48.984;8.548;2022-11-20T02:03:42;7.97;;;4.72;;
32297;SDS011;18782;48.984;8.548;2022-11-20T02:06:12;9.98;;;5.18;;
32297;SDS011;18782;48.984;8.548;2022-11-20T02:08:47;7.47;;;4.60;;
32297;SDS011;18782;48.984;8.548;2022-11-20T02:11:15;6.32;;;4.82;;
32297;SDS011;18782;48.984;8.548;2022-11-20T02:13:43;8.75;;;4.38;;
32297;SDS011;18782;48.984;8.548;2022-11-20T02:16:12;7.25;;;4.45;;
32297;SDS011;18782;48.984;8.548;2022-11-20T02:18:42;6.38;;;3.67;;
32297;SDS011;18782;48.984;8.548;2022-11-20T02:21:17;5.85;;;4.32;;
32297;SDS011;18782;48.984;8.548;2022-11-20T02:23:55;7.85;;;4.38;;
32297;SDS011;18782;48.984;8.548;2022-11-20T02:26:35;6.93;;;4.10;;
32297;SDS011;18782;48.984;8.548;2022-11-20T02:29:08;4.97;;;3.50;;
32297;SDS011;18782;48.984;8.548;2022-11-20T02:31:36;5.63;;;3.67;;
32297;SDS011;18782;48.984;8.548;2022-11-20T02:34:07;3.70;;;3.25;;
32297;SDS011;18782;48.984;8.548;2022-11-20T02:36:35;5.43;;;3.33;;
32297;SDS011;18782;48.984;8.548;2022-11-20T02:39:07;4.25;;;3.20;;
32297;SDS011;18782;48.984;8.548;2022-11-20T02:41:37;5.18;;;3.60;;
32297;SDS011;18782;48.984;8.548;2022-11-20T02:44:05;4.18;;;3.03;;
32297;SDS011;18782;48.984;8.548;2022-11-20T02:46:33;4.97;;;3.03;;
32297;SDS011;18782;48.984;8.548;2022-11-20T02:49:01;4.88;;;3.40;;
32297;SDS011;18782;48.984;8.548;2022-11-20T02:51:30;5.63;;;3.17;;
32297;SDS011;18782;48.984;8.548;2022-11-20T02:53:57;7.43;;;4.13;;
32297;SDS011;18782;48.984;8.548;2022-11-20T02:56:26;4.88;;;3.40;;
32297;SDS011;18782;48.984;8.548;2022-11-20T02:58:54;4.70;;;3.90;;
32297;SDS011;18782;48.984;8.548;2022-11-20T03:01:22;5.05;;;2.83;;
32297;SDS011;18782;48.984;8.548;2022-11-20T03:03:51;5.03;;;2.90;;
32297;SDS011;18782;48.984;8.548;2022-11-20T03:06:20;3.63;;;2.95;;
32297;SDS011;18782;48.984;8.548;2022-11-20T03:08:48;4.13;;;2.97;;
32297;SDS011;18782;48.984;8.548;2022-11-20T03:11:16;6.40;;;3.70;;
32297;SDS011;18782;48.984;8.548;2022-11-20T03:13:45;4.55;;;2.92;;
32297;SDS011;18782;48.984;8.548;2022-11-20T03:16:13;4.13;;;2.72;;
32297;SDS011;18782;48.984;8.548;2022-11-20T03:18:43;4.07;;;2.70;;
32297;SDS011;18782;48.984;8.548;2022-11-20T03:21:12;4.55;;;2.20;;
32297;SDS011;18782;48.984;8.548;2022-11-20T03:23:40;5.13;;;2.80;;
32297;SDS011;18782;48.984;8.548;2022-11-20T03:26:09;3.55;;;2.70;;
32297;SDS011;18782;48.984;8.548;2022-11-20T03:28:38;3.45;;;2.33;;
32297;SDS011;18782;48.984;8.548;2022-11-20T03:31:08;5.40;;;2.90;;
32297;SDS011;18782;48.984;8.548;2022-11-20T03:33:38;5.20;;;2.83;;
32297;SDS011;18782;48.984;8.548;2022-11-20T03:36:07;7.45;;;3.13;;
32297;SDS011;18782;48.984;8.548;2022-11-20T03:38:37;4.38;;;2.65;;
32297;SDS011;18782;48.984;8.548;2022-11-20T03:41:06;7.07;;;2.70;;
32297;SDS011;18782;48.984;8.548;2022-11-20T03:43:35;5.45;;;2.80;;
32297;SDS011;18782;48.984;8.548;2022-11-20T03:46:04;5.55;;;2.67;;
32297;SDS011;18782;48.984;8.548;2022-11-20T03:48:33;3.58;;;2.03;;
32297;SDS011;18782;48.984;8.548;2022-11-20T03:51:08;3.67;;;2.60;;
32297;SDS011;18782;48.984;8.548;2022-11-20T03:53:37;4.75;;;2.40;;
32297;SDS011;18782;48.984;8.548;2022-11-20T03:56:05;3.42;;;2.33;;
32297;SDS011;18782;48.984;8.548;2022-11-20T03:58:34;5.38;;;2.45;;
32297;SDS011;18782;48.984;8.548;2022-11-20T04:01:06;3.45;;;2.42;;
32297;SDS011;18782;48.984;8.548;2022-11-20T04:03:36;3.85;;;2.17;;
32297;SDS011;18782;48.984;8.548;2022-11-20T04:06:06;4.15;;;2.60;;
32297;SDS011;18782;48.984;8.548;2022-11-20T04:08:35;3.28;;;2.22;;
32297;SDS011;18782;48.984;8.548;2022-11-20T04:11:09;6.10;;;2.50;;
32297;SDS011;18782;48.984;8.548;2022-11-20T04:13:38;5.55;;;2.63;;
32297;SDS011;18782;48.984;8.548;2022-11-20T04:16:06;3.95;;;2.45;;
32297;SDS011;18782;48.984;8.548;2022-11-20T04:18:37;7.45;;;4.47;;
32297;SDS011;18782;48.984;8.548;2022-11-20T04:21:05;3.72;;;2.33;;
32297;SDS011;18782;48.984;8.548;2022-11-20T04:23:33;4.78;;;1.90;;
32297;SDS011;18782;48.984;8.548;2022-11-20T04:26:01;4.45;;;2.55;;
32297;SDS011;18782;48.984;8.548;2022-11-20T04:28:30;5.10;;;2.38;;
32297;SDS011;18782;48.984;8.548;2022-11-20T04:31:01;5.00;;;2.30;;
32297;SDS011;18782;48.984;8.548;2022-11-20T04:33:30;3.58;;;1.88;;
32297;SDS011;18782;48.984;8.548;2022-11-20T04:36:01;2.53;;;1.83;;
32297;SDS011;18782;48.984;8.548;2022-11-20T04:38:30;3.72;;;2.30;;
32297;SDS011;18782;48.984;8.548;2022-11-20T04:40:58;4.55;;;2.33;;
32297;SDS011;18782;48.984;8.548;2022-11-20T04:43:26;3.88;;;2.15;;
32297;SDS011;18782;48.984;8.548;2022-11-20T04:45:54;3.58;;;2.17;;
32297;SDS011;18782;48.984;8.548;2022-11-20T04:48:22;3.13;;;2.30;;
32297;SDS011;18782;48.984;8.548;2022-11-20T04:50:51;3.40;;;2.30;;
32297;SDS011;18782;48.984;8.548;2022-11-20T04:53:20;3.67;;;2.30;;
32297;SDS011;18782;48.984;8.548;2022-11-20T04:55:48;5.13;;;2.15;;
32297;SDS011;18782;48.984;8.548;2022-11-20T04:58:16;3.55;;;1.92;;
32297;SDS011;18782;48.984;8.548;2022-11-20T05:00:44;6.50;;;2.38;;
32297;SDS011;18782;48.984;8.548;2022-11-20T05:03:11;5.22;;;2.58;;
32297;SDS011;18782;48.984;8.548;2022-11-20T05:05:39;3.50;;;2.00;;
32297;SDS011;18782;48.984;8.548;2022-11-20T05:08:07;3.60;;;1.85;;
32297;SDS011;18782;48.984;8.548;2022-11-20T05:10:36;3.13;;;1.45;;
32297;SDS011;18782;48.984;8.548;2022-11-20T05:13:03;3.30;;;1.77;;
32297;SDS011;18782;48.984;8.548;2022-11-20T05:15:31;3.85;;;1.88;;
32297;SDS011;18782;48.984;8.548;2022-11-20T05:17:59;3.95;;;2.22;;
32297;SDS011;18782;48.984;8.548;2022-11-20T05:20:27;3.60;;;1.95;;
32297;SDS011;18782;48.984;8.548;2022-11-20T05:22:56;3.63;;;2.00;;
32297;SDS011;18782;48.984;8.548;2022-11-20T05:25:24;2.80;;;1.83;;
32297;SDS011;18782;48.984;8.548;2022-11-20T05:27:53;2.10;;;1.40;;
32297;SDS011;18782;48.984;8.548;2022-11-20T05:30:21;2.63;;;1.48;;
32297;SDS011;18782;48.984;8.548;2022-11-20T05:32:49;3.38;;;1.33;;
32297;SDS011;18782;48.984;8.548;2022-11-20T05:35:16;3.25;;;1.40;;
32297;SDS011;18782;48.984;8.548;2022-11-20T05:37:44;3.78;;;1.27;;
32297;SDS011;18782;48.984;8.548;2022-11-20T05:40:12;2.05;;;0.98;;
32297;SDS011;18782;48.984;8.548;2022-11-20T05:42:40;3.28;;;1.58;;
32297;SDS011;18782;48.984;8.548;2022-11-20T05:45:11;3.13;;;1.70;;
32297;SDS011;18782;48.984;8.548;2022-11-20T05:47:38;2.38;;;1.08;;
32297;SDS011;18782;48.984;8.548;2022-11-20T05:50:06;1.67;;;0.90;;
32297;SDS011;18782;48.984;8.548;2022-11-20T05:52:34;1.63;;;0.90;;
32297;SDS011;18782;48.984;8.548;2022-11-20T05:55:02;3.33;;;1.45;;
32297;SDS011;18782;48.984;8.548;2022-11-20T05:57:30;2.85;;;1.25;;
32297;SDS011;18782;48.984;8.548;2022-11-20T05:59:58;2.03;;;0.98;;
32297;SDS011;18782;48.984;8.548;2022-11-20T06:02:27;2.70;;;0.90;;
32297;SDS011;18782;48.984;8.548;2022-11-20T06:04:55;2.30;;;0.90;;
32297;SDS011;18782;48.984;8.548;2022-11-20T06:07:22;2.92;;;0.80;;
32297;SDS011;18782;48.984;8.548;2022-11-20T06:09:50;2.55;;;0.80;;
32297;SDS011;18782;48.984;8.548;2022-11-20T06:12:18;1.73;;;0.98;;
32297;SDS011;18782;48.984;8.548;2022-11-20T06:14:45;1.73;;;0.85;;
32297;SDS011;18782;48.984;8.548;2022-11-20T06:17:13;1.10;;;0.70;;
32297;SDS011;18782;48.984;8.548;2022-11-20T06:19:42;2.85;;;1.35;;
32297;SDS011;18782;48.984;8.548;2022-11-20T06:22:09;1.63;;;1.10;;
32297;SDS011;18782;48.984;8.548;2022-11-20T06:24:37;2.15;;;0.70;;
32297;SDS011;18782;48.984;8.548;2022-11-20T06:27:05;2.42;;;0.70;;
32297;SDS011;18782;48.984;8.548;2022-11-20T06:29:32;2.20;;;0.80;;
32297;SDS011;18782;48.984;8.548;2022-11-20T06:32:00;2.72;;;0.90;;
32297;SDS011;18782;48.984;8.548;2022-11-20T06:34:28;3.40;;;1.00;;
32297;SDS011;18782;48.984;8.548;2022-11-20T06:36:57;1.85;;;0.90;;
32297;SDS011;18782;48.984;8.548;2022-11-20T06:39:25;2.17;;;0.82;;
32297;SDS011;18782;48.984;8.548;2022-11-20T06:41:52;2.40;;;1.50;;
32297;SDS011;18782;48.984;8.548;2022-11-20T06:44:24;3.25;;;1.08;;
32297;SDS011;18782;48.984;8.548;2022-11-20T06:46:52;1.40;;;0.75;;
32297;SDS011;18782;48.984;8.548;2022-11-20T06:49:19;4.47;;;1.10;;
32297;SDS011;18782;48.984;8.548;2022-11-20T06:51:47;1.52;;;0.80;;
32297;SDS011;18782;48.984;8.548;2022-11-20T06:54:16;1.35;;;0.68;;
32297;SDS011;18782;48.984;8.548;2022-11-20T06:56:46;1.67;;;0.80;;
32297;SDS011;18782;48.984;8.548;2022-11-20T06:59:14;1.60;;;0.90;;
32297;SDS011;18782;48.984;8.548;2022-11-20T07:01:42;1.70;;;0.90;;
32297;SDS011;18782;48.984;8.548;2022-11-20T07:04:09;1.55;;;0.82;;
32297;SDS011;18782;48.984;8.548;2022-11-20T07:06:37;3.40;;;1.98;;
32297;SDS011;18782;48.984;8.548;2022-11-20T07:09:05;1.65;;;0.80;;
32297;SDS011;18782;48.984;8.548;2022-11-20T07:11:39;1.67;;;0.75;;
32297;SDS011;18782;48.984;8.548;2022-11-20T07:14:06;2.80;;;1.40;;
32297;SDS011;18782;48.984;8.548;2022-11-20T07:16:34;1.35;;;0.70;;
32297;SDS011;18782;48.984;8.548;2022-11-20T07:19:02;1.85;;;0.50;;
32297;SDS011;18782;48.984;8.548;2022-11-20T07:21:29;1.27;;;0.60;;
32297;SDS011;18782;48.984;8.548;2022-11-20T07:23:57;1.85;;;0.60;;
32297;SDS011;18782;48.984;8.548;2022-11-20T07:26:25;1.63;;;0.70;;
32297;SDS011;18782;48.984;8.548;2022-11-20T07:28:54;1.10;;;0.50;;
32297;SDS011;18782;48.984;8.548;2022-11-20T07:31:21;0.93;;;0.60;;
32297;SDS011;18782;48.984;8.548;2022-11-20T07:33:49;1.27;;;0.60;;
32297;SDS011;18782;48.984;8.548;2022-11-20T07:36:17;0.70;;;0.50;;
32297;SDS011;18782;48.984;8.548;2022-11-20T07:38:44;2.45;;;0.52;;
32297;SDS011;18782;48.984;8.548;2022-11-20T07:41:12;0.80;;;0.50;;
32297;SDS011;18782;48.984;8.548;2022-11-20T07:43:39;2.78;;;0.70;;
32297;SDS011;18782;48.984;8.548;2022-11-20T07:46:09;1.45;;;0.50;;
32297;SDS011;18782;48.984;8.548;2022-11-20T07:48:36;1.40;;;0.77;;
32297;SDS011;18782;48.984;8.548;2022-11-20T07:51:04;1.60;;;0.73;;
32297;SDS011;18782;48.984;8.548;2022-11-20T07:53:32;3.35;;;1.92;;
32297;SDS011;18782;48.984;8.548;2022-11-20T07:55:59;3.35;;;1.17;;
32297;SDS011;18782;48.984;8.548;2022-11-20T07:58:28;1.48;;;0.80;;
32297;SDS011;18782;48.984;8.548;2022-11-20T08:00:56;3.25;;;1.20;;
32297;SDS011;18782;48.984;8.548;2022-11-20T08:03:25;1.80;;;1.10;;
32297;SDS011;18782;48.984;8.548;2022-11-20T08:05:52;2.50;;;0.80;;
32297;SDS011;18782;48.984;8.548;2022-11-20T08:08:20;1.70;;;0.90;;
32297;SDS011;18782;48.984;8.548;2022-11-20T08:10:48;2.63;;;0.80;;
32297;SDS011;18782;48.984;8.548;2022-11-20T08:13:16;2.38;;;1.00;;
32297;SDS011;18782;48.984;8.548;2022-11-20T08:16:01;1.65;;;0.60;;
32297;SDS011;18782;48.984;8.548;2022-11-20T08:18:31;1.67;;;0.88;;
32297;SDS011;18782;48.984;8.548;2022-11-20T08:21:01;1.30;;;0.60;;
32297;SDS011;18782;48.984;8.548;2022-11-20T08:23:30;2.95;;;0.70;;
32297;SDS011;18782;48.984;8.548;2022-11-20T08:25:58;2.10;;;0.80;;
32297;SDS011;18782;48.984;8.548;2022-11-20T08:28:25;2.85;;;0.90;;
32297;SDS011;18782;48.984;8.548;2022-11-20T08:30:57;2.88;;;1.00;;
32297;SDS011;18782;48.984;8.548;2022-11-20T08:33:25;1.58;;;0.90;;
32297;SDS011;18782;48.984;8.548;2022-11-20T08:35:57;1.80;;;1.20;;
32297;SDS011;18782;48.984;8.548;2022-11-20T08:38:26;2.08;;;1.13;;
32297;SDS011;18782;48.984;8.548;2022-11-20T08:40:55;2.42;;;1.25;;
32297;SDS011;18782;48.984;8.548;2022-11-20T08:43:42;2.72;;;1.38;;
32297;SDS011;18782;48.984;8.548;2022-11-20T08:46:09;2.72;;;1.20;;
32297;SDS011;18782;48.984;8.548;2022-11-20T08:48:37;2.38;;;1.08;;
32297;SDS011;18782;48.984;8.548;2022-11-20T08:51:06;1.52;;;1.05;;
32297;SDS011;18782;48.984;8.548;2022-11-20T08:53:34;3.28;;;1.35;;
32297;SDS011;18782;48.984;8.548;2022-11-20T08:56:01;4.22;;;2.00;;
32297;SDS011;18782;48.984;8.548;2022-11-20T08:58:29;2.88;;;1.30;;
32297;SDS011;18782;48.984;8.548;2022-11-20T09:01:16;1.90;;;1.50;;
32297;SDS011;18782;48.984;8.548;2022-11-20T09:03:44;2.90;;;1.77;;
32297;SDS011;18782;48.984;8.548;2022-11-20T09:06:13;3.58;;;1.90;;
32297;SDS011;18782;48.984;8.548;2022-11-20T09:08:41;2.45;;;1.80;;
32297;SDS011;18782;48.984;8.548;2022-11-20T09:11:09;2.58;;;1.60;;
32297;SDS011;18782;48.984;8.548;2022-11-20T09:13:37;2.70;;;1.60;;
32297;SDS011;18782;48.984;8.548;2022-11-20T09:16:06;3.13;;;1.70;;
32297;SDS011;18782;48.984;8.548;2022-11-20T09:18:36;3.00;;;1.63;;
32297;SDS011;18782;48.984;8.548;2022-11-20T09:21:05;4.07;;;1.92;;
32297;SDS011;18782;48.984;8.548;2022-11-20T09:23:35;3.10;;;1.75;;
32297;SDS011;18782;48.984;8.548;2022-11-20T09:26:03;3.08;;;1.48;;
32297;SDS011;18782;48.984;8.548;2022-11-20T09:28:32;4.15;;;1.80;;
32297;SDS011;18782;48.984;8.548;2022-11-20T09:31:00;2.22;;;1.63;;
32297;SDS011;18782;48.984;8.548;2022-11-20T09:33:28;1.95;;;1.33;;
32297;SDS011;18782;48.984;8.548;2022-11-20T09:35:55;1.80;;;1.30;;
32297;SDS011;18782;48.984;8.548;2022-11-20T09:38:23;2.40;;;1.80;;
32297;SDS011;18782;48.984;8.548;2022-11-20T09:40:53;3.38;;;1.50;;
32297;SDS011;18782;48.984;8.548;2022-11-20T09:43:27;3.33;;;1.90;;
32297;SDS011;18782;48.984;8.548;2022-11-20T09:46:05;4.95;;;2.58;;
32297;SDS011;18782;48.984;8.548;2022-11-20T09:48:59;3.58;;;1.67;;
32297;SDS011;18782;48.984;8.548;2022-11-20T09:51:44;2.22;;;1.77;;
32297;SDS011;18782;48.984;8.548;2022-11-20T09:54:19;3.78;;;2.22;;
32297;SDS011;18782;48.984;8.548;2022-11-20T09:56:50;2.30;;;1.63;;
32297;SDS011;18782;48.984;8.548;2022-11-20T09:59:26;4.32;;;2.22;;
32297;SDS011;18782;48.984;8.548;2022-11-20T10:02:00;2.75;;;1.85;;
32297;SDS011;18782;48.984;8.548;2022-11-20T10:04:29;3.90;;;2.00;;
32297;SDS011;18782;48.984;8.548;2022-11-20T10:07:07;3.35;;;2.40;;
32297;SDS011;18782;48.984;8.548;2022-11-20T10:09:58;3.95;;;2.30;;
32297;SDS011;18782;48.984;8.548;2022-11-20T10:12:31;3.35;;;2.20;;
32297;SDS011;18782;48.984;8.548;2022-11-20T10:15:11;3.47;;;2.00;;
32297;SDS011;18782;48.984;8.548;2022-11-20T10:17:55;6.22;;;2.80;;
32297;SDS011;18782;48.984;8.548;2022-11-20T10:20:40;3.80;;;2.28;;
32297;SDS011;18782;48.984;8.548;2022-11-20T10:23:20;4.05;;;1.92;;
32297;SDS011;18782;48.984;8.548;2022-11-20T10:26:01;4.43;;;2.38;;
32297;SDS011;18782;48.984;8.548;2022-11-20T10:28:35;3.53;;;2.25;;
32297;SDS011;18782;48.984;8.548;2022-11-20T10:31:25;3.72;;;2.20;;
32297;SDS011;18782;48.984;8.548;2022-11-20T10:33:58;4.95;;;2.42;;
32297;SDS011;18782;48.984;8.548;2022-11-20T10:36:38;4.07;;;2.53;;
32297;SDS011;18782;48.984;8.548;2022-11-20T10:39:14;3.88;;;2.13;;
32297;SDS011;18782;48.984;8.548;2022-11-20T10:41:50;4.35;;;2.60;;
32297;SDS011;18782;48.984;8.548;2022-11-20T10:44:22;7.25;;;3.35;;
32297;SDS011;18782;48.984;8.548;2022-11-20T10:47:12;4.70;;;2.92;;
32297;SDS011;18782;48.984;8.548;2022-11-20T10:49:41;6.82;;;1.80;;
32297;SDS011;18782;48.984;8.548;2022-11-20T10:52:12;6.10;;;2.30;;
32297;SDS011;18782;48.984;8.548;2022-11-20T10:54:48;1.95;;;1.52;;
32297;SDS011;18782;48.984;8.548;2022-11-20T10:57:25;3.55;;;2.17;;
32297;SDS011;18782;48.984;8.548;2022-11-20T11:00:05;4.13;;;2.22;;
32297;SDS011;18782;48.984;8.548;2022-11-20T11:02:34;4.43;;;1.35;;
32297;SDS011;18782;48.984;8.548;2022-11-20T11:05:10;3.47;;;1.55;;
32297;SDS011;18782;48.984;8.548;2022-11-20T11:07:44;4.47;;;1.45;;
32297;SDS011;18782;48.984;8.548;2022-11-20T11:10:14;3.58;;;1.98;;
32297;SDS011;18782;48.984;8.548;2022-11-20T11:12:45;3.30;;;1.65;;
32297;SDS011;18782;48.984;8.548;2022-11-20T11:15:26;7.88;;;5.25;;
32297;SDS011;18782;48.984;8.548;2022-11-20T11:17:55;4.32;;;1.25;;
32297;SDS011;18782;48.984;8.548;2022-11-20T11:20:24;3.20;;;1.50;;
32297;SDS011;18782;48.984;8.548;2022-11-20T11:22:54;3.83;;;1.10;;
32297;SDS011;18782;48.984;8.548;2022-11-20T11:25:27;2.45;;;1.17;;
32297;SDS011;18782;48.984;8.548;2022-11-20T11:27:57;3.85;;;1.42;;
32297;SDS011;18782;48.984;8.548;2022-11-20T11:30:29;9.23;;;5.85;;
32297;SDS011;18782;48.984;8.548;2022-11-20T11:33:09;8.05;;;2.00;;
32297;SDS011;18782;48.984;8.548;2022-11-20T11:35:43;5.50;;;3.03;;
32297;SDS011;18782;48.984;8.548;2022-11-20T11:38:17;1.98;;;1.30;;
32297;SDS011;18782;48.984;8.548;2022-11-20T11:40:48;4.78;;;1.13;;
32297;SDS011;18782;48.984;8.548;2022-11-20T11:43:17;2.55;;;1.00;;
32297;SDS011;18782;48.984;8.548;2022-11-20T11:46:13;2.65;;;1.10;;
32297;SDS011;18782;48.984;8.548;2022-11-20T11:48:54;5.70;;;1.20;;
32297;SDS011;18782;48.984;8.548;2022-11-20T11:51:24;3.42;;;1.25;;
32297;SDS011;18782;48.984;8.548;2022-11-20T11:53:55;2.13;;;1.13;;
32297;SDS011;18782;48.984;8.548;2022-11-20T11:56:25;3.10;;;1.10;;
32297;SDS011;18782;48.984;8.548;2022-11-20T11:58:54;2.20;;;1.10;;
32297;SDS011;18782;48.984;8.548;2022-11-20T12:01:29;4.05;;;1.10;;
32297;SDS011;18782;48.984;8.548;2022-11-20T12:04:04;2.78;;;0.98;;
32297;SDS011;18782;48.984;8.548;2022-11-20T12:06:42;3.13;;;1.10;;
32297;SDS011;18782;48.984;8.548;2022-11-20T12:09:12;3.50;;;1.23;;
32297;SDS011;18782;48.984;8.548;2022-11-20T12:11:43;4.88;;;2.25;;
32297;SDS011;18782;48.984;8.548;2022-11-20T12:14:14;5.32;;;1.50;;
32297;SDS011;18782;48.984;8.548;2022-11-20T12:16:51;2.60;;;0.73;;
32297;SDS011;18782;48.984;8.548;2022-11-20T12:19:21;3.83;;;1.60;;
32297;SDS011;18782;48.984;8.548;2022-11-20T12:21:52;4.93;;;0.90;;
32297;SDS011;18782;48.984;8.548;2022-11-20T12:24:33;1.73;;;0.80;;
32297;SDS011;18782;48.984;8.548;2022-11-20T12:30:12;3.05;;;1.15;;
32297;SDS011;18782;48.984;8.548;2022-11-20T12:32:47;4.95;;;2.00;;
32297;SDS011;18782;48.984;8.548;2022-11-20T12:38:15;2.65;;;0.65;;
32297;SDS011;18782;48.984;8.548;2022-11-20T12:41:03;9.85;;;2.22;;
32297;SDS011;18782;48.984;8.548;2022-11-20T12:43:41;3.92;;;0.77;;
32297;SDS011;18782;48.984;8.548;2022-11-20T12:46:33;3.95;;;0.90;;
32297;SDS011;18782;48.984;8.548;2022-11-20T12:49:15;3.75;;;0.85;;
32297;SDS011;18782;48.984;8.548;2022-11-20T12:51:54;9.68;;;2.72;;
32297;SDS011;18782;48.984;8.548;2022-11-20T12:54:40;2.33;;;0.57;;
32297;SDS011;18782;48.984;8.548;2022-11-20T12:57:24;3.90;;;0.60;;
32297;SDS011;18782;48.984;8.548;2022-11-20T13:00:02;6.88;;;1.50;;
32297;SDS011;18782;48.984;8.548;2022-11-20T13:02:44;2.85;;;0.70;;
32297;SDS011;18782;48.984;8.548;2022-11-20T13:05:30;2.08;;;0.55;;
32297;SDS011;18782;48.984;8.548;2022-11-20T13:08:04;3.67;;;0.55;;
32297;SDS011;18782;48.984;8.548;2022-11-20T13:10:41;1.35;;;0.40;;
32297;SDS011;18782;48.984;8.548;2022-11-20T13:13:14;8.43;;;1.30;;
32297;SDS011;18782;48.984;8.548;2022-11-20T13:15:48;3.47;;;0.70;;
32297;SDS011;18782;48.984;8.548;2022-11-20T13:18:20;3.92;;;0.70;;
32297;SDS011;18782;48.984;8.548;2022-11-20T13:20:50;2.35;;;0.50;;
32297;SDS011;18782;48.984;8.548;2022-11-20T13:23:24;2.03;;;0.50;;
32297;SDS011;18782;48.984;8.548;2022-11-20T13:26:03;3.33;;;0.40;;
32297;SDS011;18782;48.984;8.548;2022-11-20T13:28:32;1.63;;;0.45;;
32297;SDS011;18782;48.984;8.548;2022-11-20T13:31:00;4.55;;;0.80;;
32297;SDS011;18782;48.984;8.548;2022-11-20T13:33:29;0.98;;;0.43;;
32297;SDS011;18782;48.984;8.548;2022-11-20T13:36:00;2.17;;;0.88;;
32297;SDS011;18782;48.984;8.548;2022-11-20T13:38:40;1.35;;;0.38;;
32297;SDS011;18782;48.984;8.548;2022-11-20T13:41:10;2.05;;;0.40;;
32297;SDS011;18782;48.984;8.548;2022-11-20T13:43:51;2.08;;;0.65;;
32297;SDS011;18782;48.984;8.548;2022-11-20T13:46:19;3.00;;;0.65;;
32297;SDS011;18782;48.984;8.548;2022-11-20T13:48:50;2.45;;;0.60;;
32297;SDS011;18782;48.984;8.548;2022-11-20T13:51:28;3.17;;;0.80;;
32297;SDS011;18782;48.984;8.548;2022-11-20T13:54:09;3.53;;;0.60;;
32297;SDS011;18782;48.984;8.548;2022-11-20T13:56:53;3.03;;;0.50;;
32297;SDS011;18782;48.984;8.548;2022-11-20T13:59:33;1.55;;;0.50;;
32297;SDS011;18782;48.984;8.548;2022-11-20T14:02:11;2.72;;;0.40;;
32297;SDS011;18782;48.984;8.548;2022-11-20T14:04:42;3.65;;;0.80;;
32297;SDS011;18782;48.984;8.548;2022-11-20T14:07:14;4.07;;;1.80;;
32297;SDS011;18782;48.984;8.548;2022-11-20T14:09:49;3.13;;;0.85;;
32297;SDS011;18782;48.984;8.548;2022-11-20T14:12:19;2.45;;;0.90;;
32297;SDS011;18782;48.984;8.548;2022-11-20T14:14:49;2.28;;;0.90;;
32297;SDS011;18782;48.984;8.548;2022-11-20T14:17:19;2.45;;;0.63;;
32297;SDS011;18782;48.984;8.548;2022-11-20T14:19:48;4.13;;;0.82;;
32297;SDS011;18782;48.984;8.548;2022-11-20T14:22:20;3.28;;;0.95;;
32297;SDS011;18782;48.984;8.548;2022-11-20T14:24:51;4.68;;;0.68;;
32297;SDS011;18782;48.984;8.548;2022-11-20T14:27:29;3.20;;;0.80;;
32297;SDS011;18782;48.984;8.548;2022-11-20T14:30:02;3.55;;;0.73;;
32297;SDS011;18782;48.984;8.548;2022-11-20T14:32:30;1.55;;;0.40;;
32297;SDS011;18782;48.984;8.548;2022-11-20T14:35:01;6.28;;;1.10;;
32297;SDS011;18782;48.984;8.548;2022-11-20T14:37:36;2.33;;;0.60;;
32297;SDS011;18782;48.984;8.548;2022-11-20T14:40:20;1.98;;;0.40;;
32297;SDS011;18782;48.984;8.548;2022-11-20T14:42:51;2.25;;;0.52;;
32297;SDS011;18782;48.984;8.548;2022-11-20T14:45:19;2.28;;;0.80;;
32297;SDS011;18782;48.984;8.548;2022-11-20T14:47:48;4.35;;;0.65;;
32297;SDS011;18782;48.984;8.548;2022-11-20T14:50:18;3.50;;;0.45;;
32297;SDS011;18782;48.984;8.548;2022-11-20T14:52:51;1.92;;;0.63;;
32297;SDS011;18782;48.984;8.548;2022-11-20T14:55:30;1.13;;;0.55;;
32297;SDS011;18782;48.984;8.548;2022-11-20T14:58:00;1.70;;;0.40;;
32297;SDS011;18782;48.984;8.548;2022-11-20T15:00:29;3.85;;;0.82;;
32297;SDS011;18782;48.984;8.548;2022-11-20T15:02:58;2.90;;;1.30;;
32297;SDS011;18782;48.984;8.548;2022-11-20T15:05:43;4.63;;;2.13;;
32297;SDS011;18782;48.984;8.548;2022-11-20T15:08:14;2.90;;;0.65;;
32297;SDS011;18782;48.984;8.548;2022-11-20T15:10:45;1.70;;;0.68;;
32297;SDS011;18782;48.984;8.548;2022-11-20T15:13:14;2.58;;;0.50;;
32297;SDS011;18782;48.984;8.548;2022-11-20T15:15:45;2.60;;;1.08;;